Terminal Aerodrome Forecast
Issued by NWS Atlanta, GA

Home | Current Version | Previous Version | Text Only | Print | Product List | Glossary On
Versions: 1 2 3 4 5 6 7 8 9 10 11 12 13 14 15 16 17 18 19 20 21 22 23 24 25 26 27 28 29 30 31 32 33 34 35 36 37 38 39 40 41 42 43 44
000
FTUS42 KFFC 042139 AAB
TAFATL
TAF AMD
KATL 042139Z 0422/0524 23008KT P6SM SCT035
     FM050000 24006KT 5SM SHRA SCT025 BKN040
      TEMPO 0500/0504 VRB15G25KT 3SM TSRA BKN025CB
     FM050600 25003KT 5SM BR BKN015
     FM051400 25005KT P6SM FEW025 BKN045
     FM051900 22009G14KT P6SM BKN050 PROB30 0519/0524 -TSRA
      BKN025CB=

USA.gov is the U.S. government's official web portal to all federal, state and local government web resources and services.